Blaenau Ffestiniog, United Kingdom
Current Conditions -  °F | °C
As of 7:50 PM on Sunday 21 Dec 2014 (Local Time) from EGOV Reporting Station
Haze Haze  
Wind Chill: 52°   Ceiling: 500
Heat Index: 52°   Visibility: 4mi
Dew Point: 52°   Wind: 30mph
Humidity: 100%   Direction: 210°SSW
Pressure: 30"   Gusts: NA
Location:  52.99°N, 3.94°W
Report Text: EGOV 211950Z AUTO 21026KT 6000 BR BKN005/// BKN170/// 11/11 Q1016
Loading
Personal Weather Stations






























Interactive Weather Map New forecast layout! Learn more

10-Day Weather Forecast

Advertisements
Track Severe Weather on mobile